Wetterdaten: aktuell Donnerstag, 24.10.2019 01:20
Datum Zeit Temp. 2m rel. Feuchte Luftdruck Regen Wind Richtung Richtung Sonne ET UV-Index Solar Taupunkt Ben
24.10.2019 01:20 12,9 C 90 % 1008,6 hPa 0,0 mm 3,9 km/h (1 Bft) O 84 0 min 0,0 mm 0,0 UV-I 0 W/m 11,3 C 8,9 km/h (2 Bft)
24.10.2019 00:20 13,2 C 90 % 1009,0 hPa 0,0 mm 3,4 km/h (1 Bft) O 84 0 min 0,0 mm 0,0 UV-I 0 W/m 11,6 C 13,3 km/h (3 Bft)
23.10.2019 23:20 13,1 C 90 % 1009,5 hPa 0,0 mm 2,8 km/h (1 Bft) O 84 0 min 0,0 mm 0,0 UV-I 0 W/m 11,5 C 6,7 km/h (2 Bft)
23.10.2019 22:20 13,2 C 90 % 1009,4 hPa 0,0 mm 4,3 km/h (1 Bft) O 84 0 min 0,0 mm 0,0 UV-I 0 W/m 11,6 C 17,8 km/h (3 Bft)
23.10.2019 21:20 13,3 C 89 % 1009,9 hPa 0,0 mm 3,6 km/h (1 Bft) S-SO 160 0 min 0,0 mm 0,0 UV-I 0 W/m 11,5 C 11,1 km/h (2 Bft)
23.10.2019 20:20 13,8 C 87 % 1010,5 hPa 0,0 mm 3,3 km/h (1 Bft) O 84 0 min 0,0 mm 0,0 UV-I 0 W/m 11,7 C 13,3 km/h (3 Bft)
23.10.2019 19:20 13,8 C 87 % 1011,1 hPa 0,0 mm 4,7 km/h (1 Bft) O 84 0 min 0,0 mm 0,0 UV-I 0 W/m 11,7 C 20,0 km/h (4 Bft)
23.10.2019 18:20 14,2 C 84 % 1011,5 hPa 0,0 mm 6,5 km/h (2 Bft) O 84 35 min 0,1 mm 0,0 UV-I 10 W/m 11,5 C 20,0 km/h (4 Bft)
23.10.2019 17:20 15,1 C 81 % 1011,9 hPa 0,0 mm 7,8 km/h (2 Bft) O 84 60 min 0,1 mm 0,0 UV-I 112 W/m 11,9 C 22,2 km/h (4 Bft)
23.10.2019 16:20 16,1 C 78 % 1012,4 hPa 0,0 mm 6,2 km/h (2 Bft) O 84 60 min 0,2 mm 0,0 UV-I 272 W/m 12,3 C 15,5 km/h (3 Bft)
23.10.2019 15:20 16,3 C 78 % 1013,2 hPa 0,0 mm 5,9 km/h (2 Bft) O 84 45 min 0,2 mm 0,5 UV-I 357 W/m 12,5 C 17,8 km/h (3 Bft)
23.10.2019 14:20 17,0 C 76 % 1013,9 hPa 0,0 mm 8,5 km/h (2 Bft) O 84 55 min 0,2 mm 0,8 UV-I 424 W/m 12,7 C 24,4 km/h (4 Bft)
23.10.2019 13:20 16,4 C 77 % 1014,8 hPa 0,0 mm 7,2 km/h (2 Bft) O 84 60 min 0,3 mm 0,9 UV-I 365 W/m 12,4 C 22,2 km/h (4 Bft)
23.10.2019 12:20 15,9 C 76 % 1015,6 hPa 0,0 mm 7,6 km/h (2 Bft) S 175 60 min 0,2 mm 0,9 UV-I 607 W/m 11,7 C 17,8 km/h (3 Bft)
23.10.2019 11:20 13,4 C 86 % 1016,6 hPa 0,0 mm 1,3 km/h (1 Bft) O 84 55 min 0,1 mm 0,6 UV-I 510 W/m 11,1 C 6,7 km/h (2 Bft)
23.10.2019 10:20 11,8 C 94 % 1017,1 hPa 0,0 mm 2,3 km/h (1 Bft) O 84 60 min 0,1 mm 0,0 UV-I 196 W/m 10,9 C 6,7 km/h (2 Bft)
23.10.2019 09:20 10,5 C 96 % 1017,5 hPa 0,0 mm 0,0 km/h (0 Bft) O 84 0 min 0,0 mm 0,0 UV-I 78 W/m 9,9 C 0,0 km/h (0 Bft)
23.10.2019 08:20 10,1 C 95 % 1017,6 hPa 0,0 mm 0,0 km/h (0 Bft) O 84 5 min 0,0 mm 0,0 UV-I 10 W/m 9,3 C 0,0 km/h (0 Bft)
23.10.2019 07:20 10,4 C 95 % 1018,3 hPa 0,0 mm 0,0 km/h (0 Bft) O 84 0 min 0,0 mm 0,0 UV-I 0 W/m 9,6 C 0,0 km/h (0 Bft)
23.10.2019 06:20 10,5 C 96 % 1018,6 hPa 0,0 mm 0,0 km/h (0 Bft) O 84 0 min 0,0 mm 0,0 UV-I 0 W/m 9,9 C 0,0 km/h (0 Bft)
23.10.2019 05:20 10,4 C 96 % 1019,6 hPa 0,0 mm 0,0 km/h (0 Bft) O 84 0 min 0,0 mm 0,0 UV-I 0 W/m 9,8 C 0,0 km/h (0 Bft)
23.10.2019 04:20 10,4 C 95 % 1019,8 hPa 0,0 mm 0,0 km/h (0 Bft) O 84 0 min 0,0 mm 0,0 UV-I 0 W/m 9,6 C 0,0 km/h (0 Bft)
23.10.2019 03:20 10,4 C 95 % 1020,6 hPa 0,0 mm 0,0 km/h (0 Bft) O 84 0 min 0,0 mm 0,0 UV-I 0 W/m 9,6 C 0,0 km/h (0 Bft)
23.10.2019 02:20 10,5 C 94 % 1021,5 hPa 0,0 mm 0,0 km/h (0 Bft) O 84 0 min 0,0 mm 0,0 UV-I 0 W/m 9,6 C 0,0 km/h (0 Bft)
23.10.2019 02:00 10,8 C 95 % 1021,6 hPa 0,0 mm 0,0 km/h (0 Bft) O 84 0 min 0,0 mm 0,0 UV-I 0 W/m 10,0 C 0,0 km/h (0 Bft)
_ Min-Zeit 08:30 12:40 00:35 - 02:00 - - - - - - 08:35 02:00
Minimum _ 10,0 C 74 % 1008,5 hPa - 0,0 km/h (0 Bft) - - - - - - 9,2 C 0,0 km/h (0 Bft)
_ Max-Zeit 14:20 09:35 02:00 02:00 14:30 - - 08:20 13:00 12:40 12:40 14:10 14:30
Maximum _ 17,0 C 97 % 1021,6 hPa 0,0 mm 11,5 km/h
O (2 Bft)
- - 5 min 0,3 mm 1,1 UV-I 617 W/m 12,7 C 31,1 km/h
O (5 Bft)
Durchschnitt _ 12,9 C 89 % 1015,1 hPa #0,0 mm 3,0 km/h (1 Bft) O - #0 min. #0,000 mm 0,0 UV-I 0 W/m 11,0 C 9,1 km/h (2 Bft)



© 1998 - 2019 www.pulheimwetter.de